Aviation Digital Data Service (ADDS)

Output produced by TAFs form (0105 UTC 01 November 2014)
found at http://www.aviationweather.gov/adds/tafs/
 
KMDT 312330Z 0100/0124 24005KT P6SM OVC060 
     FM010900 05007KT 5SM -RA BR OVC030 
     FM011700 03008G15KT 2SM -RA BR OVC018